DNAA

Nnamdi Azikiwe International Airport

Airport
ICAO code
DNAA
IATA Code
ABV
Summary
ICAO Region
AFI
ICAO Territory
Location

Gwaska, Federal Capital Territory

Serving
Abuja
Elevation
1123 ft
Coordinates
9° 0' 24" N , 7° 15' 48" E
KCC
Metar
DNAA 171200Z 26005KT 9999 BKN012 30/23 Q1015 NOGIG

Nnamdi Azikiwe International Airport is located in Abuja, Federal Capital Territory, Nigeria, and is the main airport serving the Nigerian capital city.

Climatology

Tropical Savanna climate (Köppen climate classification Aw)

Runways

Designator Length Width Surface Rops
4/22 3609 60 ASP Yes/Yes

Airport map

Aerial View

SKYbrary Partners:

Safety knowledge contributed by: